sensor_id;sensor_type;location;lat;lon;timestamp;pressure;altitude;pressure_sealevel;temperature;humidity
77077;BME280;66003;52.286;104.306;2023-04-03T00:01:21;98359.84;;;11.12;15.91
77077;BME280;66003;52.286;104.306;2023-04-03T00:03:47;98334.34;;;11.21;16.02
77077;BME280;66003;52.286;104.306;2023-04-03T00:06:13;98332.25;;;10.76;16.29
77077;BME280;66003;52.286;104.306;2023-04-03T00:08:40;98282.19;;;9.70;15.63
77077;BME280;66003;52.286;104.306;2023-04-03T00:11:06;98367.28;;;11.21;15.45
77077;BME280;66003;52.286;104.306;2023-04-03T00:13:33;98373.13;;;12.62;15.16
77077;BME280;66003;52.286;104.306;2023-04-03T00:15:59;98334.41;;;13.42;14.50
77077;BME280;66003;52.286;104.306;2023-04-03T00:18:25;98332.06;;;13.12;13.40
77077;BME280;66003;52.286;104.306;2023-04-03T00:20:51;98330.69;;;13.26;13.39
77077;BME280;66003;52.286;104.306;2023-04-03T00:23:18;98353.47;;;14.27;13.28
77077;BME280;66003;52.286;104.306;2023-04-03T00:25:44;98339.94;;;15.08;13.36
77077;BME280;66003;52.286;104.306;2023-04-03T00:28:10;98361.13;;;15.36;12.71
77077;BME280;66003;52.286;104.306;2023-04-03T00:30:37;98350.19;;;15.53;12.17
77077;BME280;66003;52.286;104.306;2023-04-03T00:33:03;98364.88;;;16.45;12.22
77077;BME280;66003;52.286;104.306;2023-04-03T00:35:29;98323.63;;;16.65;12.59
77077;BME280;66003;52.286;104.306;2023-04-03T00:37:56;98338.47;;;17.33;11.73
77077;BME280;66003;52.286;104.306;2023-04-03T00:40:24;98362.53;;;16.84;11.52
77077;BME280;66003;52.286;104.306;2023-04-03T00:42:56;98358.41;;;16.46;11.91
77077;BME280;66003;52.286;104.306;2023-04-03T00:45:33;98344.88;;;17.67;11.31
77077;BME280;66003;52.286;104.306;2023-04-03T00:48:01;98342.94;;;18.37;11.83
77077;BME280;66003;52.286;104.306;2023-04-03T00:50:29;98349.53;;;18.65;11.31
77077;BME280;66003;52.286;104.306;2023-04-03T00:52:57;98339.75;;;19.08;10.76
77077;BME280;66003;52.286;104.306;2023-04-03T00:55:23;98343.66;;;19.55;10.81
77077;BME280;66003;52.286;104.306;2023-04-03T00:57:51;98362.25;;;19.04;10.07
77077;BME280;66003;52.286;104.306;2023-04-03T01:00:20;98358.25;;;18.57;10.99
77077;BME280;66003;52.286;104.306;2023-04-03T01:02:48;98354.19;;;18.55;11.01
77077;BME280;66003;52.286;104.306;2023-04-03T01:05:16;98348.47;;;19.00;10.68
77077;BME280;66003;52.286;104.306;2023-04-03T01:07:43;98323.97;;;18.82;10.64
77077;BME280;66003;52.286;104.306;2023-04-03T01:10:12;98334.53;;;18.83;10.73
77077;BME280;66003;52.286;104.306;2023-04-03T01:12:42;98338.16;;;19.02;10.91
77077;BME280;66003;52.286;104.306;2023-04-03T01:15:12;98310.38;;;19.16;10.58
77077;BME280;66003;52.286;104.306;2023-04-03T01:17:51;98304.59;;;19.56;10.37
77077;BME280;66003;52.286;104.306;2023-04-03T01:25:32;98333.84;;;21.60;9.89
77077;BME280;66003;52.286;104.306;2023-04-03T01:27:58;98324.25;;;21.03;10.31
77077;BME280;66003;52.286;104.306;2023-04-03T01:30:32;98283.44;;;21.63;9.57
77077;BME280;66003;52.286;104.306;2023-04-03T01:32:58;98295.63;;;21.93;9.80
77077;BME280;66003;52.286;104.306;2023-04-03T01:35:24;98313.75;;;22.61;9.62
77077;BME280;66003;52.286;104.306;2023-04-03T01:37:51;98295.25;;;22.72;9.47
77077;BME280;66003;52.286;104.306;2023-04-03T01:40:16;98322.69;;;24.38;8.67
77077;BME280;66003;52.286;104.306;2023-04-03T01:42:42;98317.88;;;23.96;9.11
77077;BME280;66003;52.286;104.306;2023-04-03T01:45:09;98321.78;;;24.03;8.87
77077;BME280;66003;52.286;104.306;2023-04-03T01:47:35;98311.34;;;24.05;8.96
77077;BME280;66003;52.286;104.306;2023-04-03T01:50:02;98296.16;;;24.73;8.66
77077;BME280;66003;52.286;104.306;2023-04-03T01:52:28;98317.97;;;25.25;8.71
77077;BME280;66003;52.286;104.306;2023-04-03T01:54:54;98308.03;;;25.03;8.67
77077;BME280;66003;52.286;104.306;2023-04-03T01:57:20;98315.25;;;25.16;8.30
77077;BME280;66003;52.286;104.306;2023-04-03T01:59:46;98308.44;;;25.31;8.61
77077;BME280;66003;52.286;104.306;2023-04-03T02:02:12;98289.13;;;25.74;8.61
77077;BME280;66003;52.286;104.306;2023-04-03T02:04:40;98289.28;;;25.78;8.09
77077;BME280;66003;52.286;104.306;2023-04-03T02:07:06;98267.84;;;25.80;8.29
77077;BME280;66003;52.286;104.306;2023-04-03T02:09:33;98217.91;;;25.45;8.36
77077;BME280;66003;52.286;104.306;2023-04-03T02:11:59;98285.81;;;25.51;8.28
77077;BME280;66003;52.286;104.306;2023-04-03T02:14:25;98276.78;;;26.18;8.39
77077;BME280;66003;52.286;104.306;2023-04-03T02:17:13;98276.25;;;26.87;7.60
77077;BME280;66003;52.286;104.306;2023-04-03T02:19:39;98241.09;;;26.27;7.86
77077;BME280;66003;52.286;104.306;2023-04-03T02:22:05;98267.06;;;26.00;8.37
77077;BME280;66003;52.286;104.306;2023-04-03T02:24:32;98248.91;;;25.96;8.03
77077;BME280;66003;52.286;104.306;2023-04-03T02:26:59;98227.22;;;25.82;7.97
77077;BME280;66003;52.286;104.306;2023-04-03T02:29:25;98262.34;;;25.42;8.84
77077;BME280;66003;52.286;104.306;2023-04-03T02:31:52;98253.44;;;25.24;8.37
77077;BME280;66003;52.286;104.306;2023-04-03T02:34:18;98213.00;;;24.05;8.51
77077;BME280;66003;52.286;104.306;2023-04-03T02:36:44;98227.00;;;24.47;8.78
77077;BME280;66003;52.286;104.306;2023-04-03T02:39:11;98243.72;;;24.63;8.62
77077;BME280;66003;52.286;104.306;2023-04-03T02:41:37;98250.31;;;24.44;8.82
77077;BME280;66003;52.286;104.306;2023-04-03T02:44:08;98251.69;;;22.36;9.22
77077;BME280;66003;52.286;104.306;2023-04-03T02:46:35;98237.63;;;18.75;10.77
77077;BME280;66003;52.286;104.306;2023-04-03T02:49:02;98203.19;;;15.93;12.19
77077;BME280;66003;52.286;104.306;2023-04-03T02:51:28;98242.47;;;14.37;13.82
77077;BME280;66003;52.286;104.306;2023-04-03T02:53:55;98220.13;;;13.29;14.29
77077;BME280;66003;52.286;104.306;2023-04-03T02:56:21;98242.34;;;13.95;13.49
77077;BME280;66003;52.286;104.306;2023-04-03T02:58:47;98192.13;;;12.48;14.76
77077;BME280;66003;52.286;104.306;2023-04-03T03:01:13;98244.34;;;12.12;15.02
77077;BME280;66003;52.286;104.306;2023-04-03T03:03:39;98212.41;;;10.50;15.53
77077;BME280;66003;52.286;104.306;2023-04-03T03:06:08;98260.41;;;9.73;16.83
77077;BME280;66003;52.286;104.306;2023-04-03T03:08:35;98195.31;;;8.53;17.09
77077;BME280;66003;52.286;104.306;2023-04-03T03:11:02;98169.84;;;7.89;17.83
77077;BME280;66003;52.286;104.306;2023-04-03T03:13:29;98227.75;;;7.94;18.39
77077;BME280;66003;52.286;104.306;2023-04-03T03:15:56;98244.59;;;7.81;18.45
77077;BME280;66003;52.286;104.306;2023-04-03T03:18:23;98235.84;;;7.43;19.06
77077;BME280;66003;52.286;104.306;2023-04-03T03:20:56;98197.75;;;6.98;18.81
77077;BME280;66003;52.286;104.306;2023-04-03T03:23:24;98224.94;;;7.00;19.83
77077;BME280;66003;52.286;104.306;2023-04-03T03:25:56;98188.44;;;6.69;19.71
77077;BME280;66003;52.286;104.306;2023-04-03T03:28:22;98226.44;;;6.82;19.27
77077;BME280;66003;52.286;104.306;2023-04-03T03:30:49;98177.47;;;6.45;19.09
77077;BME280;66003;52.286;104.306;2023-04-03T03:33:15;98211.16;;;6.51;19.14
77077;BME280;66003;52.286;104.306;2023-04-03T03:35:43;98209.13;;;6.60;18.74
77077;BME280;66003;52.286;104.306;2023-04-03T03:38:10;98217.03;;;6.73;18.64
77077;BME280;66003;52.286;104.306;2023-04-03T03:40:36;98204.84;;;6.39;19.83
77077;BME280;66003;52.286;104.306;2023-04-03T03:43:02;98160.56;;;6.13;19.48
77077;BME280;66003;52.286;104.306;2023-04-03T03:45:28;98158.94;;;5.99;19.09
77077;BME280;66003;52.286;104.306;2023-04-03T03:47:55;98179.34;;;5.92;20.31
77077;BME280;66003;52.286;104.306;2023-04-03T03:50:21;98196.28;;;6.11;19.80
77077;BME280;66003;52.286;104.306;2023-04-03T03:52:47;98140.94;;;5.75;19.20
77077;BME280;66003;52.286;104.306;2023-04-03T03:55:13;98183.00;;;5.91;19.41
77077;BME280;66003;52.286;104.306;2023-04-03T03:57:39;98062.00;;;5.37;18.79
77077;BME280;66003;52.286;104.306;2023-04-03T04:00:06;98116.66;;;5.91;18.47
77077;BME280;66003;52.286;104.306;2023-04-03T04:02:33;98177.09;;;6.09;18.68
77077;BME280;66003;52.286;104.306;2023-04-03T04:04:59;98137.06;;;5.71;19.06
77077;BME280;66003;52.286;104.306;2023-04-03T04:07:25;98150.31;;;5.64;19.40
77077;BME280;66003;52.286;104.306;2023-04-03T04:09:53;98144.00;;;5.65;18.19
77077;BME280;66003;52.286;104.306;2023-04-03T04:12:20;98159.28;;;5.70;18.37
77077;BME280;66003;52.286;104.306;2023-04-03T04:14:46;98105.19;;;5.31;18.85
77077;BME280;66003;52.286;104.306;2023-04-03T04:17:13;98120.75;;;5.54;18.41
77077;BME280;66003;52.286;104.306;2023-04-03T04:19:40;98147.03;;;5.42;19.10
77077;BME280;66003;52.286;104.306;2023-04-03T04:22:06;98128.09;;;5.52;19.35
77077;BME280;66003;52.286;104.306;2023-04-03T04:24:32;98143.38;;;5.63;18.78
77077;BME280;66003;52.286;104.306;2023-04-03T04:26:59;98152.75;;;5.79;18.00
77077;BME280;66003;52.286;104.306;2023-04-03T04:29:25;98117.47;;;5.59;18.17
77077;BME280;66003;52.286;104.306;2023-04-03T04:31:51;98144.81;;;5.86;18.25
77077;BME280;66003;52.286;104.306;2023-04-03T04:34:17;98071.78;;;5.37;18.93
77077;BME280;66003;52.286;104.306;2023-04-03T04:36:43;98122.59;;;5.87;17.78
77077;BME280;66003;52.286;104.306;2023-04-03T04:39:10;98077.69;;;5.59;18.26
77077;BME280;66003;52.286;104.306;2023-04-03T04:41:36;98102.38;;;5.79;17.75
77077;BME280;66003;52.286;104.306;2023-04-03T04:44:02;98105.63;;;5.81;18.11
77077;BME280;66003;52.286;104.306;2023-04-03T04:46:28;98107.47;;;5.87;17.74
77077;BME280;66003;52.286;104.306;2023-04-03T04:48:55;98111.81;;;5.88;18.14
77077;BME280;66003;52.286;104.306;2023-04-03T04:51:21;98109.72;;;5.84;17.98
77077;BME280;66003;52.286;104.306;2023-04-03T04:53:47;98085.25;;;5.75;18.49
77077;BME280;66003;52.286;104.306;2023-04-03T04:56:13;98047.31;;;5.28;18.79
77077;BME280;66003;52.286;104.306;2023-04-03T04:58:39;98044.25;;;5.38;19.29
77077;BME280;66003;52.286;104.306;2023-04-03T05:01:08;98041.59;;;5.44;18.70
77077;BME280;66003;52.286;104.306;2023-04-03T05:03:34;97983.06;;;5.46;18.28
77077;BME280;66003;52.286;104.306;2023-04-03T05:06:01;98071.97;;;5.75;18.06
77077;BME280;66003;52.286;104.306;2023-04-03T05:08:27;98025.06;;;5.49;17.04
77077;BME280;66003;52.286;104.306;2023-04-03T05:10:53;98037.72;;;5.40;16.82
77077;BME280;66003;52.286;104.306;2023-04-03T05:13:20;98054.44;;;5.41;16.61
77077;BME280;66003;52.286;104.306;2023-04-03T05:15:46;98033.84;;;5.17;16.74
77077;BME280;66003;52.286;104.306;2023-04-03T05:18:13;98055.47;;;5.27;16.94
77077;BME280;66003;52.286;104.306;2023-04-03T05:20:39;98013.78;;;4.75;17.27
77077;BME280;66003;52.286;104.306;2023-04-03T05:23:05;98061.69;;;4.80;17.04
77077;BME280;66003;52.286;104.306;2023-04-03T05:25:32;98052.13;;;4.79;17.24
77077;BME280;66003;52.286;104.306;2023-04-03T05:27:58;98044.75;;;4.67;17.60
77077;BME280;66003;52.286;104.306;2023-04-03T05:30:24;98001.09;;;4.50;17.33
77077;BME280;66003;52.286;104.306;2023-04-03T05:32:50;98043.13;;;4.73;17.82
77077;BME280;66003;52.286;104.306;2023-04-03T05:35:17;98045.59;;;4.88;17.17
77077;BME280;66003;52.286;104.306;2023-04-03T05:37:43;97995.44;;;4.60;17.07
77077;BME280;66003;52.286;104.306;2023-04-03T05:40:09;98045.34;;;4.63;17.27
77077;BME280;66003;52.286;104.306;2023-04-03T05:42:35;98003.53;;;4.45;17.29
77077;BME280;66003;52.286;104.306;2023-04-03T05:45:02;98011.69;;;4.44;17.05
77077;BME280;66003;52.286;104.306;2023-04-03T05:47:29;98031.06;;;4.57;17.47
77077;BME280;66003;52.286;104.306;2023-04-03T05:49:56;98003.34;;;4.47;17.94
77077;BME280;66003;52.286;104.306;2023-04-03T05:52:30;97995.59;;;4.45;17.33
77077;BME280;66003;52.286;104.306;2023-04-03T05:54:57;97995.75;;;4.37;17.21
77077;BME280;66003;52.286;104.306;2023-04-03T05:57:23;98010.03;;;4.43;17.03
77077;BME280;66003;52.286;104.306;2023-04-03T05:59:50;97936.81;;;3.95;17.50
77077;BME280;66003;52.286;104.306;2023-04-03T06:02:19;97975.88;;;4.54;16.96
77077;BME280;66003;52.286;104.306;2023-04-03T06:04:46;98005.44;;;4.84;17.20
77077;BME280;66003;52.286;104.306;2023-04-03T06:07:14;98004.28;;;5.06;17.57
77077;BME280;66003;52.286;104.306;2023-04-03T06:09:42;97990.22;;;5.13;17.14
77077;BME280;66003;52.286;104.306;2023-04-03T06:12:08;97986.97;;;5.17;17.37
77077;BME280;66003;52.286;104.306;2023-04-03T06:14:34;97968.63;;;5.16;17.11
77077;BME280;66003;52.286;104.306;2023-04-03T06:17:01;97979.00;;;5.30;16.92
77077;BME280;66003;52.286;104.306;2023-04-03T06:19:28;97962.91;;;5.19;16.45
77077;BME280;66003;52.286;104.306;2023-04-03T06:21:54;97966.38;;;5.13;16.42
77077;BME280;66003;52.286;104.306;2023-04-03T06:24:20;97924.59;;;4.88;16.92
77077;BME280;66003;52.286;104.306;2023-04-03T06:26:49;97922.13;;;5.00;16.72
77077;BME280;66003;52.286;104.306;2023-04-03T06:29:17;97936.81;;;5.09;16.90
77077;BME280;66003;52.286;104.306;2023-04-03T06:31:44;97940.28;;;5.16;16.96
77077;BME280;66003;52.286;104.306;2023-04-03T06:34:10;97951.47;;;5.25;16.57
77077;BME280;66003;52.286;104.306;2023-04-03T06:36:39;97931.91;;;5.26;17.11
77077;BME280;66003;52.286;104.306;2023-04-03T06:39:06;97945.38;;;5.31;18.03
77077;BME280;66003;52.286;104.306;2023-04-03T06:41:32;97927.38;;;5.46;16.84
77077;BME280;66003;52.286;104.306;2023-04-03T06:43:59;97919.41;;;5.59;17.10
77077;BME280;66003;52.286;104.306;2023-04-03T06:46:26;97922.88;;;5.60;16.73
77077;BME280;66003;52.286;104.306;2023-04-03T06:48:52;97888.00;;;5.56;16.77
77077;BME280;66003;52.286;104.306;2023-04-03T06:51:27;97912.03;;;5.68;17.32
77077;BME280;66003;52.286;104.306;2023-04-03T06:53:55;97904.50;;;5.65;16.46
77077;BME280;66003;52.286;104.306;2023-04-03T06:56:22;97886.75;;;5.59;17.13
77077;BME280;66003;52.286;104.306;2023-04-03T06:58:49;97904.28;;;5.73;17.19
77077;BME280;66003;52.286;104.306;2023-04-03T07:01:17;97861.50;;;5.43;16.60
77077;BME280;66003;52.286;104.306;2023-04-03T07:03:47;97889.59;;;5.70;16.74
77077;BME280;66003;52.286;104.306;2023-04-03T07:06:15;97863.72;;;5.59;16.81
77077;BME280;66003;52.286;104.306;2023-04-03T07:08:42;97883.00;;;5.79;16.91
77077;BME280;66003;52.286;104.306;2023-04-03T07:11:09;97877.09;;;5.84;16.64
77077;BME280;66003;52.286;104.306;2023-04-03T07:13:36;97869.88;;;5.53;15.82
77077;BME280;66003;52.286;104.306;2023-04-03T07:16:03;97854.81;;;5.40;15.73
77077;BME280;66003;52.286;104.306;2023-04-03T07:18:33;97843.84;;;5.24;16.20
77077;BME280;66003;52.286;104.306;2023-04-03T07:21:00;97857.25;;;5.42;16.82
77077;BME280;66003;52.286;104.306;2023-04-03T07:23:27;97851.16;;;5.35;16.87
77077;BME280;66003;52.286;104.306;2023-04-03T07:25:54;97796.78;;;5.13;17.72
77077;BME280;66003;52.286;104.306;2023-04-03T07:28:21;97808.53;;;5.36;16.94
77077;BME280;66003;52.286;104.306;2023-04-03T07:31:05;97810.13;;;5.51;16.78
77077;BME280;66003;52.286;104.306;2023-04-03T07:33:34;97837.59;;;5.63;16.32
77077;BME280;66003;52.286;104.306;2023-04-03T07:36:01;97830.81;;;5.73;16.85
77077;BME280;66003;52.286;104.306;2023-04-03T07:38:27;97822.63;;;5.81;16.79
77077;BME280;66003;52.286;104.306;2023-04-03T07:40:53;97818.31;;;5.87;16.78
77077;BME280;66003;52.286;104.306;2023-04-03T07:43:20;97806.97;;;5.67;16.98
77077;BME280;66003;52.286;104.306;2023-04-03T07:45:47;97798.03;;;5.61;16.83
77077;BME280;66003;52.286;104.306;2023-04-03T07:48:19;97773.50;;;5.72;16.75
77077;BME280;66003;52.286;104.306;2023-04-03T07:50:46;97805.69;;;5.89;17.02
77077;BME280;66003;52.286;104.306;2023-04-03T07:53:12;97743.22;;;5.49;17.27
77077;BME280;66003;52.286;104.306;2023-04-03T07:55:38;97805.22;;;5.92;16.12
77077;BME280;66003;52.286;104.306;2023-04-03T07:58:14;97775.34;;;5.72;16.42
77077;BME280;66003;52.286;104.306;2023-04-03T08:00:41;97798.28;;;5.98;17.00
77077;BME280;66003;52.286;104.306;2023-04-03T08:03:09;97750.38;;;5.79;16.16
77077;BME280;66003;52.286;104.306;2023-04-03T08:05:44;97783.84;;;6.19;16.06
77077;BME280;66003;52.286;104.306;2023-04-03T08:08:12;97785.19;;;6.28;16.53
77077;BME280;66003;52.286;104.306;2023-04-03T08:10:39;97776.00;;;6.30;16.43
77077;BME280;66003;52.286;104.306;2023-04-03T08:13:06;97770.41;;;6.38;16.00
77077;BME280;66003;52.286;104.306;2023-04-03T08:15:33;97772.81;;;6.46;16.01
77077;BME280;66003;52.286;104.306;2023-04-03T08:18:00;97729.72;;;6.20;15.84
77077;BME280;66003;52.286;104.306;2023-04-03T08:20:27;97726.28;;;6.19;15.92
77077;BME280;66003;52.286;104.306;2023-04-03T08:22:54;97716.34;;;6.08;16.10
77077;BME280;66003;52.286;104.306;2023-04-03T08:25:20;97750.25;;;6.31;15.77
77077;BME280;66003;52.286;104.306;2023-04-03T08:27:46;97741.09;;;6.27;16.38
77077;BME280;66003;52.286;104.306;2023-04-03T08:30:13;97726.53;;;6.11;15.95
77077;BME280;66003;52.286;104.306;2023-04-03T08:32:40;97741.97;;;6.21;16.21
77077;BME280;66003;52.286;104.306;2023-04-03T08:35:08;97676.25;;;5.60;16.04
77077;BME280;66003;52.286;104.306;2023-04-03T08:37:36;97738.00;;;6.05;16.37
77077;BME280;66003;52.286;104.306;2023-04-03T08:40:03;97735.22;;;6.25;16.46
77077;BME280;66003;52.286;104.306;2023-04-03T08:45:45;97683.22;;;5.86;15.85
77077;BME280;66003;52.286;104.306;2023-04-03T08:48:18;97712.84;;;5.89;16.21
77077;BME280;66003;52.286;104.306;2023-04-03T08:50:49;97722.47;;;5.77;15.85
77077;BME280;66003;52.286;104.306;2023-04-03T08:53:25;97722.63;;;5.89;16.31
77077;BME280;66003;52.286;104.306;2023-04-03T08:55:58;97727.13;;;5.88;16.10
77077;BME280;66003;52.286;104.306;2023-04-03T08:58:49;97701.69;;;5.74;16.38
77077;BME280;66003;52.286;104.306;2023-04-03T09:03:48;97695.88;;;5.84;17.29
77077;BME280;66003;52.286;104.306;2023-04-03T09:06:33;97712.28;;;6.05;16.54
77077;BME280;66003;52.286;104.306;2023-04-03T09:09:33;97678.28;;;5.96;16.30
77077;BME280;66003;52.286;104.306;2023-04-03T09:14:50;97697.28;;;6.18;16.08
77077;BME280;66003;52.286;104.306;2023-04-03T09:22:46;97684.69;;;5.81;15.69
77077;BME280;66003;52.286;104.306;2023-04-03T09:25:17;97646.25;;;5.66;15.88
77077;BME280;66003;52.286;104.306;2023-04-03T09:27:44;97652.59;;;5.65;16.41
77077;BME280;66003;52.286;104.306;2023-04-03T09:30:22;97658.00;;;5.76;16.20
77077;BME280;66003;52.286;104.306;2023-04-03T09:32:52;97645.47;;;5.59;15.83
77077;BME280;66003;52.286;104.306;2023-04-03T09:35:31;97687.91;;;5.90;16.46
77077;BME280;66003;52.286;104.306;2023-04-03T09:38:18;97690.56;;;5.90;16.40
77077;BME280;66003;52.286;104.306;2023-04-03T09:40:45;97689.38;;;5.79;16.52
77077;BME280;66003;52.286;104.306;2023-04-03T09:43:22;97687.75;;;5.78;16.90
77077;BME280;66003;52.286;104.306;2023-04-03T09:45:50;97697.34;;;5.79;16.72
77077;BME280;66003;52.286;104.306;2023-04-03T09:48:20;97665.66;;;5.60;16.62
77077;BME280;66003;52.286;104.306;2023-04-03T09:53:43;97687.19;;;5.76;16.68
77077;BME280;66003;52.286;104.306;2023-04-03T09:58:44;97677.56;;;5.51;16.53
77077;BME280;66003;52.286;104.306;2023-04-03T10:01:25;97684.28;;;5.47;16.94
77077;BME280;66003;52.286;104.306;2023-04-03T10:04:12;97637.13;;;5.24;17.03
77077;BME280;66003;52.286;104.306;2023-04-03T10:10:01;97657.13;;;5.20;16.80
77077;BME280;66003;52.286;104.306;2023-04-03T10:12:27;97665.31;;;5.18;16.44
77077;BME280;66003;52.286;104.306;2023-04-03T10:15:01;97659.19;;;5.18;16.43
77077;BME280;66003;52.286;104.306;2023-04-03T10:17:35;97671.63;;;5.17;17.12
77077;BME280;66003;52.286;104.306;2023-04-03T10:20:23;97673.28;;;5.12;16.97
77077;BME280;66003;52.286;104.306;2023-04-03T10:23:22;97669.84;;;5.04;17.12
77077;BME280;66003;52.286;104.306;2023-04-03T10:25:54;97662.56;;;4.93;17.22
77077;BME280;66003;52.286;104.306;2023-04-03T10:31:29;97660.38;;;4.84;17.56
77077;BME280;66003;52.286;104.306;2023-04-03T10:34:02;97659.97;;;4.80;17.73
77077;BME280;66003;52.286;104.306;2023-04-03T10:36:42;97665.31;;;4.67;17.26
77077;BME280;66003;52.286;104.306;2023-04-03T10:42:22;97658.38;;;4.66;17.30
77077;BME280;66003;52.286;104.306;2023-04-03T10:45:19;97660.22;;;4.65;17.26
77077;BME280;66003;52.286;104.306;2023-04-03T10:53:31;97655.19;;;4.38;17.39
77077;BME280;66003;52.286;104.306;2023-04-03T10:58:45;97662.97;;;4.19;18.29
77077;BME280;66003;52.286;104.306;2023-04-03T11:01:26;97616.19;;;3.93;17.44
77077;BME280;66003;52.286;104.306;2023-04-03T11:03:58;97655.88;;;4.07;17.73
77077;BME280;66003;52.286;104.306;2023-04-03T11:06:31;97655.66;;;3.82;17.66
77077;BME280;66003;52.286;104.306;2023-04-03T11:09:07;97652.59;;;3.78;17.69
77077;BME280;66003;52.286;104.306;2023-04-03T11:11:39;97628.63;;;3.53;18.08
77077;BME280;66003;52.286;104.306;2023-04-03T11:14:27;97648.56;;;3.76;17.86
77077;BME280;66003;52.286;104.306;2023-04-03T11:30:19;97626.16;;;3.25;17.93
77077;BME280;66003;52.286;104.306;2023-04-03T11:35:29;97589.47;;;2.70;18.36
77077;BME280;66003;52.286;104.306;2023-04-03T11:37:56;97657.19;;;3.10;18.44
77077;BME280;66003;52.286;104.306;2023-04-03T11:40:29;97524.50;;;2.14;19.12
77077;BME280;66003;52.286;104.306;2023-04-03T11:45:55;97672.44;;;3.15;19.81
77077;BME280;66003;52.286;104.306;2023-04-03T11:53:40;97672.03;;;3.05;19.13
77077;BME280;66003;52.286;104.306;2023-04-03T12:01:50;97681.09;;;2.96;19.51
77077;BME280;66003;52.286;104.306;2023-04-03T12:04:22;97643.63;;;2.59;19.93
77077;BME280;66003;52.286;104.306;2023-04-03T12:07:34;97644.78;;;2.50;20.57
77077;BME280;66003;52.286;104.306;2023-04-03T12:12:28;97691.78;;;2.74;20.57
77077;BME280;66003;52.286;104.306;2023-04-03T12:14:54;97693.03;;;2.78;19.85
77077;BME280;66003;52.286;104.306;2023-04-03T12:17:25;97639.84;;;2.40;20.79
77077;BME280;66003;52.286;104.306;2023-04-03T12:19:53;97659.50;;;2.31;21.92
77077;BME280;66003;52.286;104.306;2023-04-03T12:22:20;97694.91;;;2.50;22.22
77077;BME280;66003;52.286;104.306;2023-04-03T12:24:51;97698.34;;;2.50;22.06
77077;BME280;66003;52.286;104.306;2023-04-03T12:27:28;97653.56;;;2.23;22.11
77077;BME280;66003;52.286;104.306;2023-04-03T12:30:10;97705.84;;;2.47;22.60
77077;BME280;66003;52.286;104.306;2023-04-03T12:32:54;97651.22;;;1.78;23.47
77077;BME280;66003;52.286;104.306;2023-04-03T12:35:30;97715.97;;;2.43;22.58
77077;BME280;66003;52.286;104.306;2023-04-03T12:43:38;97638.81;;;2.00;21.43
77077;BME280;66003;52.286;104.306;2023-04-03T12:51:15;97685.03;;;2.03;22.92
77077;BME280;66003;52.286;104.306;2023-04-03T12:53:44;97705.63;;;2.14;22.89
77077;BME280;66003;52.286;104.306;2023-04-03T12:56:37;97727.59;;;2.21;22.41
77077;BME280;66003;52.286;104.306;2023-04-03T12:59:15;97690.84;;;1.92;22.77
77077;BME280;66003;52.286;104.306;2023-04-03T13:01:43;97676.00;;;1.84;22.50
77077;BME280;66003;52.286;104.306;2023-04-03T13:04:10;97705.91;;;1.98;22.24
77077;BME280;66003;52.286;104.306;2023-04-03T13:06:40;97679.38;;;1.78;21.91
77077;BME280;66003;52.286;104.306;2023-04-03T13:09:28;97657.13;;;1.59;21.80
77077;BME280;66003;52.286;104.306;2023-04-03T13:12:12;97717.28;;;1.98;21.69
77077;BME280;66003;52.286;104.306;2023-04-03T13:14:39;97666.31;;;1.63;21.93
77077;BME280;66003;52.286;104.306;2023-04-03T13:17:13;97683.75;;;1.64;22.08
77077;BME280;66003;52.286;104.306;2023-04-03T13:19:41;97680.84;;;1.59;22.25
77077;BME280;66003;52.286;104.306;2023-04-03T13:22:34;97717.59;;;1.89;21.58
77077;BME280;66003;52.286;104.306;2023-04-03T13:25:07;97721.34;;;1.79;22.53
77077;BME280;66003;52.286;104.306;2023-04-03T13:27:34;97704.50;;;1.74;22.47
77077;BME280;66003;52.286;104.306;2023-04-03T13:30:02;97681.28;;;1.63;22.20
77077;BME280;66003;52.286;104.306;2023-04-03T13:32:31;97673.44;;;1.48;22.57
77077;BME280;66003;52.286;104.306;2023-04-03T13:34:59;97710.50;;;1.68;22.96
77077;BME280;66003;52.286;104.306;2023-04-03T13:37:29;97721.16;;;1.81;22.00
77077;BME280;66003;52.286;104.306;2023-04-03T13:40:09;97704.81;;;1.64;22.69
77077;BME280;66003;52.286;104.306;2023-04-03T13:42:39;97666.59;;;1.32;22.63
77077;BME280;66003;52.286;104.306;2023-04-03T13:47:47;97673.44;;;1.27;23.08
77077;BME280;66003;52.286;104.306;2023-04-03T13:50:22;97678.91;;;1.25;23.87
77077;BME280;66003;52.286;104.306;2023-04-03T13:53:11;97716.41;;;1.49;23.20
77077;BME280;66003;52.286;104.306;2023-04-03T13:58:26;97692.25;;;1.24;23.79
77077;BME280;66003;52.286;104.306;2023-04-03T14:01:09;97711.38;;;1.32;23.11
77077;BME280;66003;52.286;104.306;2023-04-03T14:03:56;97665.53;;;1.05;23.09
77077;BME280;66003;52.286;104.306;2023-04-03T14:06:23;97697.50;;;1.24;22.43
77077;BME280;66003;52.286;104.306;2023-04-03T14:08:51;97692.75;;;1.13;23.20
77077;BME280;66003;52.286;104.306;2023-04-03T14:11:26;97619.72;;;0.64;23.19
77077;BME280;66003;52.286;104.306;2023-04-03T14:13:56;97695.91;;;1.08;22.90
77077;BME280;66003;52.286;104.306;2023-04-03T14:16:26;97680.34;;;0.92;23.34
77077;BME280;66003;52.286;104.306;2023-04-03T14:18:53;97688.50;;;0.97;23.35
77077;BME280;66003;52.286;104.306;2023-04-03T14:21:20;97648.94;;;0.69;23.13
77077;BME280;66003;52.286;104.306;2023-04-03T14:23:47;97670.50;;;0.79;23.62
77077;BME280;66003;52.286;104.306;2023-04-03T14:26:21;97647.00;;;0.63;23.56
77077;BME280;66003;52.286;104.306;2023-04-03T14:28:51;97649.47;;;0.64;23.77
77077;BME280;66003;52.286;104.306;2023-04-03T14:31:18;97677.56;;;0.79;24.33